createdAt,value
2023-02-17T00:01:22.319Z,7.75
2023-02-17T00:06:29.232Z,7.25
2023-02-17T00:11:32.165Z,5.50
2023-02-17T00:16:36.355Z,6.00
2023-02-17T00:21:39.187Z,4.00
2023-02-17T00:26:41.928Z,7.50
2023-02-17T00:31:46.983Z,7.25
2023-02-17T00:36:49.834Z,6.00
2023-02-17T00:41:52.650Z,8.25
2023-02-17T00:46:58.161Z,7.00
2023-02-17T00:52:02.024Z,8.25
2023-02-17T00:57:04.997Z,5.25
2023-02-17T01:02:09.546Z,5.75
2023-02-17T01:07:12.257Z,6.00
2023-02-17T01:12:15.713Z,8.00
2023-02-17T01:17:19.794Z,8.50
2023-02-17T01:22:22.600Z,5.50
2023-02-17T01:27:25.345Z,8.00
2023-02-17T01:32:31.180Z,6.00
2023-02-17T01:37:34.294Z,5.50
2023-02-17T01:42:37.071Z,7.50
2023-02-17T01:47:41.585Z,6.00
2023-02-17T01:52:45.221Z,7.00
2023-02-17T01:57:49.598Z,6.00
2023-02-17T02:02:54.404Z,7.25
2023-02-17T02:07:58.228Z,5.00
2023-02-17T02:13:01.189Z,6.50
2023-02-17T02:18:22.049Z,5.50
2023-02-17T02:23:54.265Z,7.50
2023-02-17T02:29:25.626Z,7.25
2023-02-17T02:34:35.503Z,5.75
2023-02-17T02:39:43.715Z,6.25
2023-02-17T02:44:46.843Z,5.00
2023-02-17T02:49:51.001Z,6.50
2023-02-17T02:55:01.498Z,6.50
2023-02-17T03:00:16.217Z,4.00
2023-02-17T03:05:31.043Z,5.25
2023-02-17T03:10:33.891Z,5.50
2023-02-17T03:15:36.828Z,5.25
2023-02-17T03:20:46.825Z,6.00
2023-02-17T03:25:49.574Z,6.75
2023-02-17T03:30:52.397Z,7.50
2023-02-17T03:35:56.490Z,4.75
2023-02-17T03:40:59.254Z,7.00
2023-02-17T03:46:02.372Z,8.50
2023-02-17T03:51:13.391Z,6.50
2023-02-17T03:56:16.402Z,6.25
2023-02-17T04:01:19.181Z,6.00
2023-02-17T04:06:23.430Z,6.25
2023-02-17T04:11:26.497Z,6.00
2023-02-17T04:16:29.391Z,6.25
2023-02-17T04:21:33.769Z,5.50
2023-02-17T04:26:36.548Z,5.00
2023-02-17T04:31:39.503Z,6.25
2023-02-17T04:36:44.411Z,5.00
2023-02-17T04:41:47.387Z,5.00
2023-02-17T04:46:50.160Z,7.50
2023-02-17T04:51:54.295Z,5.00
2023-02-17T04:56:57.050Z,7.75
2023-02-17T05:01:59.976Z,6.75
2023-02-17T05:07:04.597Z,5.00
2023-02-17T05:12:08.240Z,4.25
2023-02-17T05:17:11.119Z,7.00
2023-02-17T05:22:15.271Z,7.25
2023-02-17T05:27:18.041Z,7.75
2023-02-17T05:32:20.812Z,5.75
2023-02-17T05:37:24.957Z,4.75
2023-02-17T05:42:28.803Z,6.00
2023-02-17T05:47:31.612Z,6.25
2023-02-17T05:52:35.702Z,6.50
2023-02-17T05:57:38.489Z,4.50
2023-02-17T06:02:41.292Z,5.75
2023-02-17T06:07:45.400Z,5.75
2023-02-17T06:12:48.333Z,4.75
2023-02-17T06:17:51.135Z,6.00
2023-02-17T06:22:55.275Z,6.00
2023-02-17T06:27:58.108Z,4.25
2023-02-17T06:33:00.970Z,7.50
2023-02-17T06:38:05.488Z,5.75
2023-02-17T06:43:08.405Z,7.50
2023-02-17T06:48:11.318Z,5.00
2023-02-17T06:53:15.450Z,6.50
2023-02-17T06:58:18.227Z,5.75
2023-02-17T07:03:20.984Z,7.25
2023-02-17T07:08:25.336Z,5.50
2023-02-17T07:13:28.238Z,6.50
2023-02-17T07:18:30.989Z,6.00
2023-02-17T07:23:35.518Z,4.75
2023-02-17T07:28:39.276Z,5.50
2023-02-17T07:33:42.566Z,5.25
2023-02-17T07:38:47.001Z,5.25
2023-02-17T07:43:50.088Z,5.25
2023-02-17T07:48:53.367Z,5.00
2023-02-17T07:53:57.484Z,4.75
2023-02-17T07:59:00.315Z,6.00
2023-02-17T08:04:03.175Z,14.75
2023-02-17T08:09:25.474Z,15.75
2023-02-17T08:14:31.310Z,11.67
2023-02-17T08:19:47.383Z,14.25
2023-02-17T08:24:52.388Z,12.00
2023-02-17T08:29:55.892Z,8.00
2023-02-17T08:34:59.311Z,7.75
2023-02-17T08:40:03.588Z,7.75
2023-02-17T08:45:07.400Z,8.00
2023-02-17T08:50:15.867Z,7.25
2023-02-17T08:55:20.313Z,6.00
2023-02-17T09:00:23.446Z,6.50
2023-02-17T09:05:26.797Z,10.25
2023-02-17T09:10:31.127Z,7.50
2023-02-17T09:15:34.056Z,7.50
2023-02-17T09:20:37.222Z,6.00
2023-02-17T09:25:41.353Z,6.75
2023-02-17T09:30:44.135Z,6.00
2023-02-17T09:35:47.110Z,5.25
2023-02-17T09:40:51.571Z,7.00
2023-02-17T09:46:01.476Z,5.50
2023-02-17T09:51:12.253Z,6.00
2023-02-17T09:56:21.423Z,6.50
2023-02-17T10:01:29.598Z,5.75
2023-02-17T10:06:36.657Z,5.00
2023-02-17T10:11:45.208Z,6.50
2023-02-17T10:16:52.393Z,5.25
2023-02-17T10:22:03.521Z,7.50
2023-02-17T10:27:22.809Z,7.50
2023-02-17T10:32:27.951Z,8.25
2023-02-17T10:37:42.331Z,6.00
2023-02-17T10:42:48.809Z,11.00
2023-02-17T10:47:57.683Z,9.75
2023-02-17T10:53:00.461Z,8.75
2023-02-17T10:58:15.040Z,6.75
2023-02-17T11:03:21.388Z,8.00
2023-02-17T11:08:33.538Z,7.00
2023-02-17T11:13:42.293Z,5.75
2023-02-17T11:18:50.757Z,7.00
2023-02-17T11:23:58.086Z,6.75
2023-02-17T11:29:17.663Z,6.75
2023-02-17T11:34:24.615Z,5.00
2023-02-17T11:39:28.318Z,5.50
2023-02-17T11:44:32.484Z,2.50
2023-02-17T11:49:56.286Z,5.75
2023-02-17T11:55:17.202Z,5.00
2023-02-17T12:00:24.093Z,4.00
2023-02-17T12:05:31.513Z,6.25
2023-02-17T12:10:48.615Z,4.00
2023-02-17T12:16:09.631Z,4.50
2023-02-17T12:21:20.647Z,4.00
2023-02-17T12:26:32.545Z,4.00
2023-02-17T12:31:55.221Z,5.00
2023-02-17T12:36:59.948Z,4.00
2023-02-17T12:42:08.279Z,5.00
2023-02-17T12:47:17.190Z,3.00
2023-02-17T12:52:27.099Z,3.25
2023-02-17T12:57:41.097Z,4.00
2023-02-17T13:02:45.559Z,5.00
2023-02-17T13:07:55.593Z,3.50
2023-02-17T13:13:04.898Z,3.25
2023-02-17T13:18:14.010Z,4.00
2023-02-17T13:23:29.637Z,2.00
2023-02-17T13:28:37.285Z,3.00
2023-02-17T13:33:48.378Z,4.25
2023-02-17T13:38:57.326Z,3.00
2023-02-17T13:44:00.277Z,2.00
2023-02-17T13:49:07.620Z,2.75
2023-02-17T13:54:13.366Z,2.75
2023-02-17T13:59:18.792Z,3.50
2023-02-17T14:04:27.154Z,3.25
2023-02-17T14:09:32.961Z,2.50
2023-02-17T14:14:38.133Z,2.00
2023-02-17T14:19:47.267Z,3.00
2023-02-17T14:24:59.726Z,2.25
2023-02-17T14:30:05.411Z,3.50
2023-02-17T14:35:22.150Z,4.25
2023-02-17T14:40:25.926Z,4.00
2023-02-17T14:45:28.996Z,6.00
2023-02-17T14:50:34.888Z,3.00
2023-02-17T14:55:43.072Z,4.50
2023-02-17T15:00:45.864Z,3.00
2023-02-17T15:05:50.458Z,4.00
2023-02-17T15:10:53.410Z,3.00
2023-02-17T15:15:56.376Z,2.25
2023-02-17T15:21:00.596Z,3.50
2023-02-17T15:26:03.499Z,2.50
2023-02-17T15:31:07.567Z,3.00
2023-02-17T15:36:17.880Z,4.25
2023-02-17T15:41:23.859Z,4.00
2023-02-17T15:46:32.017Z,3.00
2023-02-17T15:51:36.479Z,2.50
2023-02-17T15:56:43.276Z,5.00
2023-02-17T16:01:46.272Z,3.00
2023-02-17T16:06:50.411Z,2.00
2023-02-17T16:11:57.317Z,4.00
2023-02-17T16:17:00.303Z,3.00
2023-02-17T16:22:04.535Z,5.25
2023-02-17T16:27:09.514Z,3.00
2023-02-17T16:32:13.625Z,2.00
2023-02-17T16:37:18.768Z,4.25
2023-02-17T16:42:21.600Z,3.50
2023-02-17T16:47:24.560Z,2.00
2023-02-17T16:52:28.957Z,2.00
2023-02-17T16:57:31.909Z,3.25
2023-02-17T17:02:34.782Z,2.25
2023-02-17T17:07:40.093Z,2.00
2023-02-17T17:12:43.372Z,3.00
2023-02-17T17:17:51.814Z,2.75
2023-02-17T17:22:56.021Z,2.00
2023-02-17T17:27:59.253Z,2.75
2023-02-17T17:33:02.493Z,2.50
2023-02-17T17:38:06.945Z,1.75
2023-02-17T17:43:09.906Z,2.00
2023-02-17T17:48:14.529Z,1.75
2023-02-17T17:53:18.882Z,2.25
2023-02-17T17:58:21.669Z,2.00
2023-02-17T18:03:24.733Z,3.00
2023-02-17T18:08:29.431Z,2.00
2023-02-17T18:13:34.496Z,2.50
2023-02-17T18:18:38.110Z,6.25
2023-02-17T18:23:42.376Z,4.00
2023-02-17T18:28:45.414Z,2.00
2023-02-17T18:33:48.724Z,2.50
2023-02-17T18:38:53.268Z,2.00
2023-02-17T18:43:56.997Z,1.25
2023-02-17T18:49:00.485Z,2.00
2023-02-17T18:54:10.642Z,1.00
2023-02-17T18:59:13.496Z,1.00
2023-02-17T19:04:16.536Z,1.00
2023-02-17T19:09:20.717Z,2.50
2023-02-17T19:14:23.818Z,1.00
2023-02-17T19:19:29.703Z,2.00
2023-02-17T19:24:33.785Z,1.00
2023-02-17T19:29:37.153Z,1.00
2023-02-17T19:34:40.207Z,1.50
2023-02-17T19:39:45.461Z,1.50
2023-02-17T19:44:48.966Z,2.50
2023-02-17T19:49:51.820Z,1.00
2023-02-17T19:54:56.373Z,2.25
2023-02-17T19:59:59.269Z,1.50
2023-02-17T20:05:02.198Z,5.00
2023-02-17T20:10:10.635Z,1.75
2023-02-17T20:15:13.514Z,1.00
2023-02-17T20:20:16.487Z,2.00
2023-02-17T20:25:20.953Z,1.00
2023-02-17T20:30:23.943Z,2.25
2023-02-17T20:35:26.979Z,1.00
2023-02-17T20:40:31.343Z,1.50
2023-02-17T20:45:34.223Z,2.00
2023-02-17T20:50:37.274Z,1.00
2023-02-17T20:55:41.491Z,1.00
2023-02-17T21:00:44.363Z,1.00
2023-02-17T21:05:47.967Z,2.25
2023-02-17T21:10:52.456Z,1.50
2023-02-17T21:15:55.334Z,1.50
2023-02-17T21:20:58.239Z,3.00
2023-02-17T21:26:02.899Z,1.50
2023-02-17T21:31:06.780Z,4.75
2023-02-17T21:36:11.205Z,1.50
2023-02-17T21:41:17.804Z,2.75
2023-02-17T21:46:21.940Z,3.00
2023-02-17T21:51:25.322Z,1.75
2023-02-17T21:56:29.691Z,2.75
2023-02-17T22:01:32.609Z,1.00
2023-02-17T22:06:37.209Z,1.25
2023-02-17T22:11:43.742Z,3.00
2023-02-17T22:16:47.208Z,1.75
2023-02-17T22:21:51.466Z,1.25
2023-02-17T22:26:56.153Z,1.50
2023-02-17T22:31:59.004Z,0.00
2023-02-17T22:37:02.132Z,3.00
2023-02-17T22:42:07.476Z,1.25
2023-02-17T22:47:10.298Z,2.00
2023-02-17T22:52:13.089Z,2.25
2023-02-17T22:57:17.198Z,1.25
2023-02-17T23:02:20.048Z,2.00
2023-02-17T23:07:23.773Z,2.00
2023-02-17T23:12:27.939Z,0.00
2023-02-17T23:17:51.896Z,2.25
2023-02-17T23:22:54.709Z,0.00
2023-02-17T23:27:58.862Z,1.00
2023-02-17T23:33:01.668Z,0.50
2023-02-17T23:38:04.676Z,1.75
2023-02-17T23:43:10.170Z,1.50
2023-02-17T23:48:13.481Z,0.75
2023-02-17T23:53:16.406Z,1.00
2023-02-17T23:58:20.569Z,1.50
